Brant Rock, Massachusetts
Current Conditions -  °F | °C
As of 12:35 AM on Tuesday 27 Jan 2015 (Local Time) from KGHG Reporting Station
Moderate Snow Moderate Snow  
Wind Chill: 20°   Ceiling: 100
Heat Index: 32°   Visibility: NA
Dew Point: 30°   Wind: 21mph
Humidity: 93%   Direction: 40°NE
Pressure: 29.72"   Gusts: 47mph
Location:  42.09°N, 70.64°W
Report Text: KGHG 270535Z AUTO 04018G41KT SN OVC001 00/M01 A2972 RMK AO2
Loading
Personal Weather Stations






























Interactive Weather Map New forecast layout! Learn more

10-Day Weather Forecast

Advertisements
Track Severe Weather on mobile